Time;durP1;ratioP1;P1;durP2;ratioP2;P2;SDS_P1;SDS_P2;PMS_P1;PMS_P2;Temp;Humidity;BMP_temperature;BMP_pressure;BME280_temperature;BME280_humidity;BME280_pressure;Samples;Min_cycle;Max_cycle;Signal;HPM_P1;HPM_P2
2022/11/17 00:01:24;;;;;;;4.53;4.13;;;;;;;;;;4966441;28;20319;-76
2022/11/17 00:03:52;;;;;;;4.50;4.10;;;;;;;;;;4996318;28;20588;-76
2022/11/17 00:06:22;;;;;;;3.80;3.50;;;;;;;;;;4968629;28;20973;-77
2022/11/17 00:08:47;;;;;;;3.70;3.40;;;;;;;;;;4988492;28;20386;-77
2022/11/17 00:11:15;;;;;;;3.77;3.53;;;;;;;;;;4985439;28;20588;-77
2022/11/17 00:16:27;;;;;;;3.73;3.43;;;;;;;;;;4987569;28;20286;-76
2022/11/17 00:21:40;;;;;;;3.30;3.00;;;;;;;;;;5002078;28;20247;-76
2022/11/17 00:24:08;;;;;;;3.60;3.40;;;;;;;;;;4979962;28;20745;-76
2022/11/17 00:27:00;;;;;;;3.33;3.13;;;;;;;;;;4980980;28;20225;-76
2022/11/17 00:29:24;;;;;;;3.40;3.10;;;;;;;;;;4957087;28;20225;-76
2022/11/17 00:34:38;;;;;;;3.80;3.50;;;;;;;;;;4988804;28;20266;-77
2022/11/17 00:37:06;;;;;;;3.63;3.33;;;;;;;;;;5000338;28;20245;-77
2022/11/17 00:39:34;;;;;;;4.40;4.00;;;;;;;;;;4976763;28;20220;-76
2022/11/17 00:42:02;;;;;;;3.70;3.40;;;;;;;;;;5007679;28;20282;-76
2022/11/17 00:44:28;;;;;;;3.80;3.50;;;;;;;;;;4979226;28;20224;-76
2022/11/17 00:46:55;;;;;;;4.10;3.60;;;;;;;;;;4996069;28;20595;-76
2022/11/17 00:49:24;;;;;;;3.90;3.60;;;;;;;;;;4993033;28;20316;-77
2022/11/17 00:51:55;;;;;;;4.13;3.83;;;;;;;;;;4980046;28;20220;-77
2022/11/17 00:54:22;;;;;;;3.77;3.47;;;;;;;;;;4983828;28;20366;-77
2022/11/17 00:56:48;;;;;;;4.43;4.13;;;;;;;;;;5004986;28;20323;-77
2022/11/17 00:59:16;;;;;;;4.43;4.03;;;;;;;;;;4998570;28;20225;-76
2022/11/17 01:01:44;;;;;;;5.00;4.50;;;;;;;;;;4969561;28;20380;-77
2022/11/17 01:04:13;;;;;;;4.93;4.53;;;;;;;;;;4987943;28;20236;-77
2022/11/17 01:06:43;;;;;;;4.33;4.03;;;;;;;;;;4969789;28;20254;-77
2022/11/17 01:09:14;;;;;;;5.40;4.90;;;;;;;;;;4997093;28;20220;-77
2022/11/17 01:11:53;;;;;;;4.60;4.27;;;;;;;;;;5000558;28;20220;-77
2022/11/17 01:14:26;;;;;;;5.67;5.17;;;;;;;;;;4969611;28;20330;-76
2022/11/17 01:16:54;;;;;;;5.47;4.97;;;;;;;;;;4999800;28;20232;-76
2022/11/17 01:19:22;;;;;;;5.33;4.97;;;;;;;;;;4995385;28;20729;-76
2022/11/17 01:21:47;;;;;;;5.40;5.00;;;;;;;;;;4996349;28;20608;-77
2022/11/17 01:24:14;;;;;;;5.77;5.33;;;;;;;;;;4989076;28;20226;-76
2022/11/17 01:26:40;;;;;;;6.03;5.53;;;;;;;;;;4987864;28;20223;-77
2022/11/17 01:29:10;;;;;;;5.93;5.43;;;;;;;;;;4967907;28;20223;-76
2022/11/17 01:31:39;;;;;;;6.40;5.80;;;;;;;;;;4991936;28;20212;-75
2022/11/17 01:34:19;;;;;;;6.30;5.77;;;;;;;;;;4973701;28;20258;-76
2022/11/17 01:39:36;;;;;;;6.33;5.83;;;;;;;;;;5011135;28;20606;-76
2022/11/17 01:42:12;;;;;;;6.87;6.27;;;;;;;;;;5001210;28;20240;-76
2022/11/17 01:45:17;;;;;;;6.50;5.90;;;;;;;;;;4993819;28;20232;-76
2022/11/17 01:47:53;;;;;;;6.57;6.03;;;;;;;;;;4993224;28;20243;-77
2022/11/17 01:50:35;;;;;;;7.30;6.70;;;;;;;;;;4965653;28;20237;-76
2022/11/17 01:53:05;;;;;;;6.70;6.20;;;;;;;;;;5002356;28;20725;-77
2022/11/17 01:55:58;;;;;;;8.10;7.40;;;;;;;;;;4976234;28;20279;-76
2022/11/17 01:58:34;;;;;;;8.50;7.80;;;;;;;;;;5000827;28;20358;-78
2022/11/17 02:00:59;;;;;;;9.03;8.23;;;;;;;;;;4984049;28;20235;-77
2022/11/17 02:03:25;;;;;;;8.40;7.67;;;;;;;;;;5015321;28;20301;-78
2022/11/17 02:06:25;;;;;;;8.67;7.97;;;;;;;;;;4997927;28;20234;-78
2022/11/17 02:08:54;;;;;;;9.23;8.50;;;;;;;;;;4980729;28;20220;-77
2022/11/17 02:11:21;;;;;;;9.47;8.73;;;;;;;;;;4985027;28;20232;-76
2022/11/17 02:13:47;;;;;;;10.10;9.30;;;;;;;;;;5003749;28;20281;-76
2022/11/17 02:16:25;;;;;;;10.87;9.97;;;;;;;;;;4999941;28;20260;-77
2022/11/17 02:18:50;;;;;;;10.87;9.97;;;;;;;;;;4957388;28;20997;-77
2022/11/17 02:21:31;;;;;;;9.77;9.07;;;;;;;;;;5000922;28;20232;-77
2022/11/17 02:24:02;;;;;;;9.60;8.80;;;;;;;;;;5002154;28;20251;-77
2022/11/17 02:26:52;;;;;;;11.63;10.43;;;;;;;;;;5011929;28;20785;-76
2022/11/17 02:29:20;;;;;;;11.27;10.30;;;;;;;;;;5013744;28;20224;-78
2022/11/17 02:32:04;;;;;;;11.43;10.47;;;;;;;;;;5001331;28;20232;-76
2022/11/17 02:35:08;;;;;;;11.13;10.13;;;;;;;;;;4964446;28;20226;-76
2022/11/17 02:37:37;;;;;;;11.13;10.17;;;;;;;;;;5005789;28;20224;-76
2022/11/17 02:40:26;;;;;;;11.23;10.07;;;;;;;;;;5015113;28;20231;-76
2022/11/17 02:45:56;;;;;;;10.93;9.97;;;;;;;;;;4978477;28;20315;-77
2022/11/17 02:48:44;;;;;;;9.90;9.10;;;;;;;;;;4955267;28;20309;-76
2022/11/17 02:51:20;;;;;;;10.40;9.50;;;;;;;;;;4986614;28;20230;-76
2022/11/17 02:53:51;;;;;;;10.37;9.40;;;;;;;;;;4999325;28;20693;-77
2022/11/17 02:56:19;;;;;;;11.10;10.10;;;;;;;;;;4955226;28;20231;-76
2022/11/17 02:58:49;;;;;;;10.93;10.03;;;;;;;;;;4998977;28;20225;-76
2022/11/17 03:01:45;;;;;;;11.87;9.03;;;;;;;;;;4985953;28;20236;-76
2022/11/17 03:05:01;;;;;;;11.07;10.13;;;;;;;;;;5008166;28;20597;-76
2022/11/17 03:07:39;;;;;;;11.20;10.30;;;;;;;;;;4999472;28;20352;-77
2022/11/17 03:10:18;;;;;;;12.63;11.33;;;;;;;;;;4996741;28;20344;-77
2022/11/17 03:12:53;;;;;;;11.33;10.33;;;;;;;;;;5003509;28;20610;-76
2022/11/17 03:15:39;;;;;;;11.53;10.53;;;;;;;;;;4988842;28;20227;-76
2022/11/17 03:18:19;;;;;;;11.40;10.40;;;;;;;;;;4985102;28;20227;-77
2022/11/17 03:21:03;;;;;;;11.83;10.73;;;;;;;;;;5017143;28;20259;-77
2022/11/17 03:23:55;;;;;;;11.17;10.10;;;;;;;;;;4999402;28;20221;-77
2022/11/17 03:26:26;;;;;;;12.00;10.20;;;;;;;;;;5000806;28;20721;-76
2022/11/17 03:28:53;;;;;;;12.10;10.27;;;;;;;;;;4969707;28;20302;-76
2022/11/17 03:31:21;;;;;;;12.03;10.90;;;;;;;;;;4968721;28;20224;-78
2022/11/17 03:33:50;;;;;;;11.13;10.23;;;;;;;;;;4969292;28;20297;-78
2022/11/17 03:36:29;;;;;;;10.73;9.83;;;;;;;;;;5010246;28;20228;-77
2022/11/17 03:39:36;;;;;;;11.23;10.33;;;;;;;;;;4971845;28;20326;-77
2022/11/17 03:42:44;;;;;;;9.40;8.50;;;;;;;;;;4992050;28;20247;-77
2022/11/17 03:45:14;;;;;;;10.80;9.83;;;;;;;;;;4975649;28;20233;-75
2022/11/17 03:47:40;;;;;;;10.70;9.60;;;;;;;;;;5017899;28;20232;-77
2022/11/17 03:50:35;;;;;;;11.90;10.90;;;;;;;;;;5006534;28;20244;-76
2022/11/17 03:53:03;;;;;;;11.57;10.53;;;;;;;;;;5001522;28;20597;-77
2022/11/17 03:55:47;;;;;;;10.50;9.60;;;;;;;;;;4987582;28;20225;-77
2022/11/17 03:58:14;;;;;;;11.13;10.13;;;;;;;;;;4980671;28;20707;-77
2022/11/17 04:01:04;;;;;;;9.90;9.10;;;;;;;;;;4973504;28;20265;-77
2022/11/17 04:03:32;;;;;;;11.60;10.53;;;;;;;;;;5002438;28;20220;-77
2022/11/17 04:05:59;;;;;;;11.70;10.57;;;;;;;;;;5003339;28;20566;-77
2022/11/17 04:08:28;;;;;;;11.90;10.90;;;;;;;;;;4981243;28;20224;-77
2022/11/17 04:17:17;;;;;;;10.73;9.90;;;;;;;;;;4994104;28;20757;-77
2022/11/17 04:20:17;;;;;;;11.40;10.30;;;;;;;;;;4998348;28;20230;-77
2022/11/17 04:23:13;;;;;;;10.40;9.50;;;;;;;;;;4989581;28;20256;-77
2022/11/17 04:31:34;;;;;;;11.53;10.53;;;;;;;;;;4997002;28;20220;-77
2022/11/17 04:34:03;;;;;;;12.13;11.13;;;;;;;;;;5024838;28;20220;-77
2022/11/17 04:37:15;;;;;;;11.93;10.73;;;;;;;;;;5007072;28;20855;-77
2022/11/17 04:39:43;;;;;;;11.63;10.63;;;;;;;;;;4990897;28;20225;-77
2022/11/17 04:42:13;;;;;;;11.93;10.80;;;;;;;;;;5016876;28;20236;-77
2022/11/17 04:44:41;;;;;;;12.57;11.33;;;;;;;;;;5015094;28;20745;-77
2022/11/17 04:47:07;;;;;;;12.90;11.70;;;;;;;;;;4984399;28;20219;-77
2022/11/17 04:49:32;;;;;;;12.50;11.50;;;;;;;;;;4993830;28;20210;-77
2022/11/17 04:51:58;;;;;;;12.80;11.57;;;;;;;;;;4987648;28;20227;-77
2022/11/17 04:54:27;;;;;;;12.23;11.13;;;;;;;;;;4982338;28;20235;-76
2022/11/17 04:56:53;;;;;;;13.33;11.33;;;;;;;;;;4983324;28;20240;-76
2022/11/17 04:59:20;;;;;;;12.20;11.07;;;;;;;;;;4982542;28;20301;-76
2022/11/17 05:02:27;;;;;;;11.93;10.83;;;;;;;;;;4978323;28;20251;-77
2022/11/17 05:04:56;;;;;;;11.53;10.53;;;;;;;;;;4962216;28;20290;-76
2022/11/17 05:07:36;;;;;;;12.17;11.13;;;;;;;;;;4989724;28;20217;-77
2022/11/17 05:10:06;;;;;;;13.43;11.83;;;;;;;;;;4967978;28;20216;-76
2022/11/17 05:17:03;;;;;;;11.57;10.57;;;;;;;;;;5013494;28;20220;-76
2022/11/17 05:18:11;;;;;;;12.87;11.70;;;;;;;;;;4998203;28;20232;-77
2022/11/17 05:21:00;;;;;;;12.73;11.57;;;;;;;;;;4979008;28;20609;-76
2022/11/17 05:23:53;;;;;;;11.60;10.60;;;;;;;;;;4997937;28;20302;-78
2022/11/17 05:27:08;;;;;;;11.43;10.43;;;;;;;;;;5002618;28;20223;-76
2022/11/17 05:29:59;;;;;;;10.70;9.80;;;;;;;;;;5005623;28;20333;-76
2022/11/17 05:33:09;;;;;;;12.93;11.83;;;;;;;;;;5003151;28;20240;-74
2022/11/17 05:35:55;;;;;;;11.30;10.40;;;;;;;;;;4999581;28;20296;-78
2022/11/17 05:38:23;;;;;;;13.13;11.90;;;;;;;;;;4996381;28;20248;-76
2022/11/17 05:44:07;;;;;;;13.37;12.10;;;;;;;;;;4988986;28;20236;-77
2022/11/17 05:46:38;;;;;;;12.27;11.07;;;;;;;;;;5014888;28;20609;-76
2022/11/17 05:49:03;;;;;;;16.20;12.03;;;;;;;;;;4960797;28;20261;-76
2022/11/17 05:51:31;;;;;;;12.47;11.43;;;;;;;;;;5004645;28;20216;-77
2022/11/17 05:53:57;;;;;;;13.47;12.27;;;;;;;;;;5020394;28;20915;-77
2022/11/17 05:56:33;;;;;;;13.47;12.10;;;;;;;;;;4983678;28;20224;-77
2022/11/17 05:59:19;;;;;;;12.17;11.07;;;;;;;;;;4996571;28;20237;-77
2022/11/17 06:02:20;;;;;;;14.17;12.87;;;;;;;;;;5001963;28;20236;-76
2022/11/17 06:04:48;;;;;;;13.10;11.90;;;;;;;;;;4967834;28;20229;-76
2022/11/17 06:07:16;;;;;;;12.83;11.63;;;;;;;;;;4994869;28;20219;-78
2022/11/17 06:09:44;;;;;;;14.17;12.97;;;;;;;;;;4972734;28;20229;-75
2022/11/17 06:12:10;;;;;;;13.97;12.67;;;;;;;;;;4997185;28;20286;-75
2022/11/17 06:14:38;;;;;;;13.77;12.50;;;;;;;;;;5004689;28;20597;-75
2022/11/17 06:17:10;;;;;;;14.23;13.03;;;;;;;;;;5019956;28;20628;-76
2022/11/17 06:19:42;;;;;;;16.93;13.23;;;;;;;;;;4972793;28;20228;-73
2022/11/17 06:22:11;;;;;;;15.60;14.10;;;;;;;;;;4970033;28;20397;-74
2022/11/17 06:24:37;;;;;;;14.10;12.60;;;;;;;;;;4965334;28;20676;-74
2022/11/17 06:27:03;;;;;;;14.70;13.40;;;;;;;;;;4985035;28;20224;-75
2022/11/17 06:30:20;;;;;;;14.53;13.23;;;;;;;;;;4985996;28;20334;-75
2022/11/17 06:32:46;;;;;;;14.67;13.43;;;;;;;;;;4966597;28;20217;-75
2022/11/17 06:35:12;;;;;;;14.37;13.10;;;;;;;;;;4984508;28;20221;-75
2022/11/17 06:37:42;;;;;;;14.70;13.50;;;;;;;;;;4970991;28;20235;-74
2022/11/17 06:40:09;;;;;;;15.23;13.83;;;;;;;;;;4986555;28;20261;-75
2022/11/17 06:45:28;;;;;;;14.13;12.90;;;;;;;;;;4975290;28;20706;-75
2022/11/17 06:47:54;;;;;;;14.30;13.10;;;;;;;;;;4970810;28;20248;-75
2022/11/17 06:50:22;;;;;;;14.20;13.00;;;;;;;;;;4969649;28;21057;-75
2022/11/17 06:52:47;;;;;;;15.27;13.97;;;;;;;;;;4953458;28;20271;-74
2022/11/17 06:55:13;;;;;;;13.77;12.57;;;;;;;;;;4950588;28;20647;-75
2022/11/17 06:57:38;;;;;;;13.20;11.87;;;;;;;;;;4969330;28;20221;-75
2022/11/17 07:00:05;;;;;;;14.20;12.77;;;;;;;;;;4969627;28;20255;-73
2022/11/17 07:02:33;;;;;;;10.10;9.07;;;;;;;;;;4952609;28;20232;-74
2022/11/17 07:04:59;;;;;;;14.57;13.27;;;;;;;;;;4951543;28;20220;-74
2022/11/17 07:07:24;;;;;;;14.37;13.17;;;;;;;;;;4985881;28;20229;-75
2022/11/17 07:09:50;;;;;;;13.30;12.20;;;;;;;;;;4985919;28;20220;-73
2022/11/17 07:12:15;;;;;;;12.17;11.07;;;;;;;;;;4984983;28;20228;-76
2022/11/17 07:14:41;;;;;;;12.60;11.50;;;;;;;;;;4970158;28;20725;-73
2022/11/17 07:17:06;;;;;;;13.27;12.13;;;;;;;;;;4951675;28;20221;-74
2022/11/17 07:19:32;;;;;;;13.83;12.43;;;;;;;;;;4969818;28;20229;-76
2022/11/17 07:22:15;;;;;;;13.50;12.37;;;;;;;;;;4970037;28;20229;-76
2022/11/17 07:24:41;;;;;;;12.77;11.77;;;;;;;;;;4985614;28;20227;-73
2022/11/17 07:27:06;;;;;;;14.97;11.53;;;;;;;;;;4998216;28;20220;-74
2022/11/17 07:29:35;;;;;;;13.30;12.07;;;;;;;;;;4987030;28;21013;-75
2022/11/17 07:32:03;;;;;;;12.03;11.03;;;;;;;;;;4969960;28;20221;-74
2022/11/17 07:34:29;;;;;;;11.87;10.97;;;;;;;;;;4969728;28;20661;-76
2022/11/17 07:36:54;;;;;;;13.17;12.03;;;;;;;;;;4970975;28;20220;-76
2022/11/17 07:39:23;;;;;;;12.23;11.23;;;;;;;;;;4969967;28;20228;-76
2022/11/17 07:41:49;;;;;;;11.67;10.50;;;;;;;;;;4968590;28;20228;-73
2022/11/17 07:44:14;;;;;;;11.23;10.33;;;;;;;;;;4967184;28;20235;-75
2022/11/17 07:46:40;;;;;;;11.57;10.67;;;;;;;;;;4969037;28;20236;-74
2022/11/17 07:51:41;;;;;;;12.30;11.10;;;;;;;;;;4990199;28;20252;-82
2022/11/17 07:54:10;;;;;;;11.30;10.40;;;;;;;;;;4959144;28;20276;-86
2022/11/17 07:56:35;;;;;;;10.37;9.47;;;;;;;;;;4941010;28;20242;-85
2022/11/17 07:59:01;;;;;;;11.60;10.70;;;;;;;;;;4945625;28;20233;-84
2022/11/17 08:01:30;;;;;;;11.63;10.57;;;;;;;;;;4947351;28;20241;-83
2022/11/17 08:03:58;;;;;;;10.13;9.33;;;;;;;;;;4952128;28;20309;-83
2022/11/17 08:06:26;;;;;;;11.00;10.10;;;;;;;;;;4945069;28;20229;-84
2022/11/17 08:08:52;;;;;;;10.87;9.87;;;;;;;;;;4929671;28;20226;-84
2022/11/17 08:11:18;;;;;;;11.60;10.60;;;;;;;;;;4929471;28;20717;-83
2022/11/17 08:13:43;;;;;;;12.77;11.67;;;;;;;;;;4936991;28;20225;-84
2022/11/17 08:16:09;;;;;;;13.40;12.07;;;;;;;;;;4945150;28;20972;-83
2022/11/17 08:18:40;;;;;;;12.77;11.67;;;;;;;;;;4944141;28;20238;-81
2022/11/17 08:21:12;;;;;;;12.47;11.47;;;;;;;;;;4927340;28;20265;-87
2022/11/17 08:23:38;;;;;;;12.03;10.83;;;;;;;;;;4945780;28;20262;-84
2022/11/17 08:26:04;;;;;;;13.40;12.00;;;;;;;;;;4958665;28;20226;-84
2022/11/17 08:28:32;;;;;;;11.67;10.67;;;;;;;;;;4926200;28;20687;-85
2022/11/17 08:31:04;;;;;;;13.50;12.17;;;;;;;;;;4929202;28;20230;-84
2022/11/17 08:33:31;;;;;;;12.13;11.13;;;;;;;;;;4949380;28;20222;-84
2022/11/17 08:36:00;;;;;;;13.03;11.83;;;;;;;;;;4958312;28;20241;-84
2022/11/17 08:38:28;;;;;;;13.13;11.93;;;;;;;;;;4940542;28;20229;-83
2022/11/17 08:41:05;;;;;;;13.17;11.93;;;;;;;;;;4944592;28;20257;-84
2022/11/17 08:43:36;;;;;;;12.17;10.97;;;;;;;;;;4940541;28;20302;-81
2022/11/17 08:46:01;;;;;;;12.73;11.63;;;;;;;;;;4941770;28;20626;-82
2022/11/17 08:48:33;;;;;;;12.27;11.17;;;;;;;;;;4917045;28;20241;-82
2022/11/17 08:51:06;;;;;;;12.27;11.13;;;;;;;;;;4969736;28;20221;-83
2022/11/17 08:53:34;;;;;;;12.00;11.00;;;;;;;;;;4942717;28;20222;-82
2022/11/17 08:56:07;;;;;;;12.17;11.03;;;;;;;;;;4958657;28;20268;-83
2022/11/17 08:58:40;;;;;;;12.23;11.17;;;;;;;;;;4925872;28;20246;-83
2022/11/17 09:01:11;;;;;;;12.73;11.53;;;;;;;;;;4936427;28;20233;-82
2022/11/17 09:03:40;;;;;;;12.97;11.77;;;;;;;;;;4947362;28;20228;-81
2022/11/17 09:06:11;;;;;;;11.83;10.83;;;;;;;;;;4944920;28;20873;-82
2022/11/17 09:08:39;;;;;;;12.57;11.33;;;;;;;;;;4948633;28;20205;-82
2022/11/17 09:11:09;;;;;;;11.17;10.17;;;;;;;;;;4941685;28;20582;-84
2022/11/17 09:13:34;;;;;;;12.13;10.93;;;;;;;;;;4944675;28;20250;-85
2022/11/17 09:16:10;;;;;;;11.47;10.53;;;;;;;;;;4934904;23;21629;-74
2022/11/17 09:18:38;;;;;;;13.30;12.10;;;;;;;;;;4941299;28;20238;-74
2022/11/17 09:21:06;;;;;;;11.87;10.87;;;;;;;;;;4940271;28;20226;-74
2022/11/17 09:23:34;;;;;;;12.80;11.50;;;;;;;;;;4956029;28;20381;-74
2022/11/17 09:26:10;;;;;;;11.60;10.50;;;;;;;;;;4940170;28;20237;-74
2022/11/17 09:28:36;;;;;;;11.83;10.70;;;;;;;;;;4954020;28;20273;-73
2022/11/17 09:31:09;;;;;;;11.77;10.77;;;;;;;;;;4939386;28;20223;-74
2022/11/17 09:33:37;;;;;;;12.53;11.33;;;;;;;;;;4924249;29;20713;-74
2022/11/17 09:36:03;;;;;;;11.97;10.93;;;;;;;;;;4922362;28;20227;-74
2022/11/17 09:38:33;;;;;;;12.20;11.00;;;;;;;;;;4941158;28;20229;-74
2022/11/17 09:40:59;;;;;;;11.37;10.27;;;;;;;;;;4939606;28;20243;-72
2022/11/17 09:43:32;;;;;;;11.70;10.60;;;;;;;;;;4939385;28;20222;-74
2022/11/17 09:46:20;;;;;;;10.03;9.13;;;;;;;;;;4954815;28;20245;-76
2022/11/17 09:48:50;;;;;;;10.83;9.83;;;;;;;;;;4941136;28;20279;-75
2022/11/17 09:51:22;;;;;;;13.53;12.33;;;;;;;;;;4938758;28;20215;-75
2022/11/17 09:54:23;;;;;;;10.80;9.90;;;;;;;;;;4946146;28;21169;-74
2022/11/17 09:56:51;;;;;;;11.47;10.37;;;;;;;;;;4899740;29;20227;-73
2022/11/17 09:59:19;;;;;;;11.33;10.23;;;;;;;;;;4940866;28;20713;-74
2022/11/17 10:01:45;;;;;;;10.53;9.47;;;;;;;;;;4940285;28;20503;-74
2022/11/17 10:04:11;;;;;;;10.57;9.57;;;;;;;;;;4925356;28;20238;-74
2022/11/17 10:06:37;;;;;;;10.03;9.23;;;;;;;;;;4940521;28;20226;-78
2022/11/17 10:09:20;;;;;;;10.30;9.40;;;;;;;;;;4941354;28;20317;-76
2022/11/17 10:11:45;;;;;;;8.77;7.97;;;;;;;;;;4942462;28;20764;-75
2022/11/17 10:14:16;;;;;;;9.20;8.40;;;;;;;;;;4957106;28;20241;-74
2022/11/17 10:16:52;;;;;;;10.73;9.77;;;;;;;;;;4939996;28;20317;-75
2022/11/17 10:19:39;;;;;;;10.67;9.77;;;;;;;;;;4941187;28;20219;-75
2022/11/17 10:22:06;;;;;;;10.43;9.33;;;;;;;;;;4925233;28;20611;-76
2022/11/17 10:24:42;;;;;;;10.07;9.17;;;;;;;;;;4942479;28;20223;-75
2022/11/17 10:27:20;;;;;;;10.47;9.47;;;;;;;;;;4940572;28;20231;-75
2022/11/17 10:30:22;;;;;;;9.30;8.57;;;;;;;;;;4942344;28;20230;-74
2022/11/17 10:32:57;;;;;;;8.70;7.97;;;;;;;;;;4924549;29;20253;-75
2022/11/17 10:35:29;;;;;;;9.33;8.53;;;;;;;;;;4940394;28;20230;-75
2022/11/17 10:38:02;;;;;;;9.00;8.20;;;;;;;;;;4926651;28;21176;-74
2022/11/17 10:40:34;;;;;;;10.30;9.30;;;;;;;;;;4940584;28;20273;-74
2022/11/17 10:43:12;;;;;;;10.07;9.07;;;;;;;;;;4941315;28;20231;-74
2022/11/17 10:45:56;;;;;;;9.67;8.77;;;;;;;;;;4941438;28;20705;-74
2022/11/17 10:51:28;;;;;;;8.33;7.53;;;;;;;;;;4939031;28;20227;-75
2022/11/17 10:54:14;;;;;;;8.43;7.73;;;;;;;;;;4925791;29;20218;-73
2022/11/17 10:56:49;;;;;;;9.20;8.40;;;;;;;;;;4945066;28;20226;-73
2022/11/17 10:59:18;;;;;;;8.60;7.80;;;;;;;;;;4927419;28;20619;-74
2022/11/17 11:01:45;;;;;;;8.37;7.57;;;;;;;;;;4943539;28;20235;-73
2022/11/17 11:04:40;;;;;;;7.67;7.07;;;;;;;;;;4928640;28;20226;-77
2022/11/17 11:07:08;;;;;;;8.43;7.70;;;;;;;;;;4904085;28;20235;-75
2022/11/17 11:09:57;;;;;;;8.57;7.80;;;;;;;;;;4944726;28;20226;-72
2022/11/17 11:12:41;;;;;;;7.47;6.77;;;;;;;;;;4944345;28;20226;-74
2022/11/17 11:15:08;;;;;;;7.47;6.77;;;;;;;;;;4944660;28;20313;-75
2022/11/17 11:17:33;;;;;;;7.00;6.50;;;;;;;;;;4959778;28;20302;-76
2022/11/17 11:19:59;;;;;;;6.17;5.70;;;;;;;;;;4942831;28;20223;-75
2022/11/17 11:22:56;;;;;;;7.00;6.47;;;;;;;;;;4927691;28;20234;-74
2022/11/17 11:25:35;;;;;;;7.17;6.53;;;;;;;;;;4931826;28;20231;-74
2022/11/17 11:28:21;;;;;;;7.17;6.17;;;;;;;;;;4951617;28;20269;-72
2022/11/17 11:31:25;;;;;;;6.03;5.53;;;;;;;;;;4965491;28;20304;-74
2022/11/17 11:34:15;;;;;;;6.53;6.00;;;;;;;;;;4950913;28;20231;-74
2022/11/17 11:36:49;;;;;;;5.80;5.40;;;;;;;;;;4963000;28;20314;-73
2022/11/17 11:39:27;;;;;;;6.17;5.67;;;;;;;;;;4950558;28;20237;-74
2022/11/17 11:42:15;;;;;;;5.57;5.10;;;;;;;;;;4950027;29;20243;-73
2022/11/17 11:45:03;;;;;;;6.30;5.80;;;;;;;;;;4953039;28;20321;-75
2022/11/17 11:48:05;;;;;;;6.23;5.73;;;;;;;;;;4950661;28;20231;-74
2022/11/17 11:50:34;;;;;;;6.07;5.50;;;;;;;;;;4934581;29;20261;-73
2022/11/17 11:53:25;;;;;;;6.17;5.57;;;;;;;;;;4964999;28;20716;-74
2022/11/17 11:56:01;;;;;;;5.87;5.37;;;;;;;;;;4948690;28;20229;-76
2022/11/17 11:58:26;;;;;;;6.17;5.77;;;;;;;;;;4965891;28;20238;-74
2022/11/17 12:01:03;;;;;;;6.53;5.93;;;;;;;;;;4949885;28;21176;-75
2022/11/17 12:03:36;;;;;;;6.00;5.50;;;;;;;;;;4963900;28;20234;-74
2022/11/17 12:09:01;;;;;;;6.67;6.07;;;;;;;;;;4949015;28;20227;-76
2022/11/17 12:14:17;;;;;;;6.77;6.10;;;;;;;;;;4953669;28;20234;-72
2022/11/17 12:16:43;;;;;;;7.10;6.50;;;;;;;;;;4954037;29;20237;-73
2022/11/17 12:19:43;;;;;;;7.23;6.13;;;;;;;;;;4934238;28;20231;-73
2022/11/17 12:22:32;;;;;;;6.10;5.50;;;;;;;;;;4949947;28;20245;-74
2022/11/17 12:25:00;;;;;;;6.60;6.03;;;;;;;;;;4930365;28;20700;-74
2022/11/17 12:28:10;;;;;;;6.67;6.17;;;;;;;;;;4935586;28;20230;-73
2022/11/17 12:30:42;;;;;;;5.67;5.27;;;;;;;;;;4937607;28;20225;-72
2022/11/17 12:33:08;;;;;;;7.07;6.47;;;;;;;;;;4944048;28;20247;-74
2022/11/17 12:35:38;;;;;;;6.50;6.00;;;;;;;;;;4949069;28;20234;-75
2022/11/17 12:38:13;;;;;;;6.57;6.07;;;;;;;;;;4945354;28;20294;-74
2022/11/17 12:40:52;;;;;;;7.50;6.90;;;;;;;;;;4962735;28;20282;-74
2022/11/17 12:43:22;;;;;;;6.13;5.63;;;;;;;;;;4944100;28;20602;-75
2022/11/17 12:45:50;;;;;;;6.57;6.07;;;;;;;;;;4948047;28;21100;-75
2022/11/17 12:48:18;;;;;;;6.23;5.73;;;;;;;;;;4930547;28;21313;-73
2022/11/17 12:50:49;;;;;;;6.77;6.27;;;;;;;;;;4930179;29;20214;-75
2022/11/17 12:53:21;;;;;;;6.50;6.00;;;;;;;;;;4945985;28;20589;-76
2022/11/17 12:56:04;;;;;;;5.80;5.40;;;;;;;;;;4933714;29;20314;-74
2022/11/17 12:59:11;;;;;;;7.50;6.50;;;;;;;;;;4953826;28;20231;-73
2022/11/17 13:01:58;;;;;;;6.17;5.67;;;;;;;;;;4951996;28;20313;-72
2022/11/17 13:04:37;;;;;;;6.27;5.77;;;;;;;;;;4950821;28;20258;-74
2022/11/17 13:07:04;;;;;;;6.23;5.73;;;;;;;;;;4947942;28;20258;-73
2022/11/17 13:09:32;;;;;;;6.87;6.20;;;;;;;;;;4947529;28;20260;-74
2022/11/17 13:12:03;;;;;;;5.97;5.47;;;;;;;;;;4921816;29;20342;-75
2022/11/17 13:14:29;;;;;;;6.37;5.87;;;;;;;;;;4930614;29;20226;-76
2022/11/17 13:16:55;;;;;;;6.73;6.23;;;;;;;;;;4948139;28;20254;-72
2022/11/17 13:19:36;;;;;;;5.90;5.40;;;;;;;;;;4931582;28;20226;-73
2022/11/17 13:22:10;;;;;;;6.60;5.97;;;;;;;;;;4945035;28;20235;-75
2022/11/17 13:24:37;;;;;;;6.13;5.63;;;;;;;;;;4950121;28;20261;-74
2022/11/17 13:27:06;;;;;;;5.53;5.03;;;;;;;;;;4931391;29;20605;-73
2022/11/17 13:29:32;;;;;;;8.23;6.50;;;;;;;;;;4914938;29;20974;-76
2022/11/17 13:32:13;;;;;;;5.97;5.57;;;;;;;;;;4925852;29;20238;-72
2022/11/17 13:34:56;;;;;;;6.13;5.63;;;;;;;;;;4931475;28;20230;-76
2022/11/17 13:37:24;;;;;;;5.97;5.47;;;;;;;;;;4941565;28;20231;-73
2022/11/17 13:39:56;;;;;;;6.17;5.67;;;;;;;;;;4920602;28;20222;-75
2022/11/17 13:42:23;;;;;;;6.17;5.50;;;;;;;;;;4939784;28;20250;-74
2022/11/17 13:44:55;;;;;;;6.07;5.57;;;;;;;;;;4956740;28;20233;-73
2022/11/17 13:47:36;;;;;;;5.60;5.10;;;;;;;;;;4939071;28;20229;-76
2022/11/17 13:50:29;;;;;;;6.13;5.63;;;;;;;;;;4942745;28;20223;-73
2022/11/17 13:53:07;;;;;;;5.37;4.87;;;;;;;;;;4942690;28;20235;-75
2022/11/17 13:55:33;;;;;;;5.47;4.97;;;;;;;;;;4931700;29;20338;-75
2022/11/17 13:58:05;;;;;;;4.80;4.40;;;;;;;;;;4937597;28;20223;-74
2022/11/17 14:00:36;;;;;;;5.57;5.13;;;;;;;;;;4940638;28;20226;-75
2022/11/17 14:03:07;;;;;;;5.73;5.30;;;;;;;;;;4923662;28;20359;-76
2022/11/17 14:05:35;;;;;;;5.37;4.97;;;;;;;;;;4926599;28;20811;-75
2022/11/17 14:08:23;;;;;;;5.53;5.07;;;;;;;;;;4923326;29;20225;-75
2022/11/17 14:10:48;;;;;;;5.57;5.13;;;;;;;;;;4941280;28;20223;-72
2022/11/17 14:13:27;;;;;;;6.07;5.57;;;;;;;;;;4925540;28;20227;-72
2022/11/17 14:15:55;;;;;;;5.97;5.47;;;;;;;;;;4939514;28;20234;-72
2022/11/17 14:18:29;;;;;;;6.10;5.57;;;;;;;;;;4941026;28;20701;-72
2022/11/17 14:21:07;;;;;;;5.60;5.10;;;;;;;;;;4956565;28;20233;-75
2022/11/17 14:23:33;;;;;;;5.70;5.20;;;;;;;;;;4925497;29;20215;-73
2022/11/17 14:26:38;;;;;;;5.57;5.17;;;;;;;;;;4941756;28;20227;-74
2022/11/17 14:29:17;;;;;;;5.50;5.00;;;;;;;;;;4938491;28;20357;-74
2022/11/17 14:31:43;;;;;;;5.20;4.70;;;;;;;;;;4939861;28;20238;-74
2022/11/17 14:34:08;;;;;;;5.63;5.13;;;;;;;;;;4942236;28;20241;-76
2022/11/17 14:36:34;;;;;;;5.97;5.30;;;;;;;;;;4942709;28;20238;-75
2022/11/17 14:39:01;;;;;;;6.20;5.70;;;;;;;;;;4942333;29;20226;-77
2022/11/17 14:41:26;;;;;;;5.57;5.07;;;;;;;;;;4925909;28;20345;-75
2022/11/17 14:43:52;;;;;;;5.27;4.87;;;;;;;;;;4940004;28;20237;-76
2022/11/17 14:46:24;;;;;;;5.90;5.40;;;;;;;;;;4940504;28;20230;-75
2022/11/17 14:48:51;;;;;;;5.80;5.40;;;;;;;;;;4943216;28;20261;-76
2022/11/17 14:51:17;;;;;;;6.10;5.60;;;;;;;;;;4941261;28;20326;-76
2022/11/17 14:53:45;;;;;;;5.93;5.47;;;;;;;;;;4960012;28;20630;-75
2022/11/17 14:56:13;;;;;;;6.10;5.43;;;;;;;;;;4942825;28;20241;-73
2022/11/17 14:58:43;;;;;;;5.77;5.27;;;;;;;;;;4959089;28;20281;-77
2022/11/17 15:01:16;;;;;;;9.23;8.37;;;;;;;;;;4941358;28;20322;-75
2022/11/17 15:03:42;;;;;;;6.37;5.87;;;;;;;;;;4957694;28;20241;-73
2022/11/17 15:06:08;;;;;;;5.87;5.37;;;;;;;;;;4942911;28;20235;-73
2022/11/17 15:08:35;;;;;;;6.40;5.90;;;;;;;;;;4928834;29;20310;-76
2022/11/17 15:11:01;;;;;;;7.10;6.50;;;;;;;;;;4944399;28;20713;-74
2022/11/17 15:13:26;;;;;;;5.53;5.13;;;;;;;;;;4929023;28;20214;-79
2022/11/17 15:16:02;;;;;;;5.87;5.37;;;;;;;;;;4944549;28;20234;-71
2022/11/17 15:18:27;;;;;;;5.63;5.17;;;;;;;;;;4941780;28;20230;-72
2022/11/17 15:21:09;;;;;;;6.13;5.63;;;;;;;;;;4944399;28;20230;-73
2022/11/17 15:23:38;;;;;;;7.30;6.70;;;;;;;;;;4946761;28;20737;-75
2022/11/17 15:26:09;;;;;;;6.07;5.57;;;;;;;;;;4926438;28;20238;-71
2022/11/17 15:28:35;;;;;;;6.40;5.67;;;;;;;;;;4942580;29;20229;-74
2022/11/17 15:31:11;;;;;;;6.50;6.00;;;;;;;;;;4941957;28;20919;-73
2022/11/17 15:33:39;;;;;;;6.60;5.90;;;;;;;;;;4928119;29;20218;-74
2022/11/17 15:36:07;;;;;;;6.77;6.17;;;;;;;;;;4941629;28;20301;-74
2022/11/17 15:38:36;;;;;;;6.60;5.80;;;;;;;;;;4960662;28;20250;-76
2022/11/17 15:41:02;;;;;;;5.63;5.23;;;;;;;;;;4996224;23;20251;-81
2022/11/17 15:43:29;;;;;;;7.13;6.43;;;;;;;;;;4972801;28;20830;-80
2022/11/17 15:46:13;;;;;;;7.20;6.60;;;;;;;;;;4970106;28;20219;-80
2022/11/17 15:48:42;;;;;;;7.10;6.50;;;;;;;;;;4976018;28;20253;-82
2022/11/17 15:51:14;;;;;;;8.20;6.47;;;;;;;;;;4977870;28;20280;-81
2022/11/17 15:53:40;;;;;;;7.40;6.80;;;;;;;;;;4994336;28;20233;-83
2022/11/17 15:56:15;;;;;;;6.93;6.43;;;;;;;;;;4998351;28;20237;-83